N19BV KDCA-KMEM
Flight info
| Callsign | N19BV |
|---|---|
| Flight time | 1h 50m |
| Altitude | 43000 |
| Route | REBLL5 OTTTO Q80 FAREV RAMRD BLUZZ5 |
| Aircraft | C750/M-SBDE3FGHRWXY/S |
Departure
| Time | 2026-05-06 01:51 |
|---|---|
| Airport | Ronald Reagan Washington National Airport (KDCA) |
Arrival
| Time | 2026-05-06 03:41 |
|---|---|
| Airport | Memphis International Airport (KMEM) |
| Time | Latitude | Longitude | Altitude | Speed | Heading |
|---|---|---|---|---|---|
| 2026-05-06 01:08 | 38.84511 | -77.04755 | 21 ft | 0 kts | 50° |
| 2026-05-06 01:38 | 38.84511 | -77.04754 | 21 ft | 1 kts | 50° |
| 2026-05-06 01:38 | 38.84512 | -77.04752 | 21 ft | 0 kts | 57° |
| 2026-05-06 01:39 | 38.84513 | -77.04750 | 21 ft | 0 kts | 65° |
| 2026-05-06 01:40 | 38.84513 | -77.04748 | 22 ft | 1 kts | 70° |
| 2026-05-06 01:40 | 38.84515 | -77.04733 | 21 ft | 4 kts | 78° |
| 2026-05-06 01:40 | 38.84524 | -77.04659 | 22 ft | 12 kts | 65° |
| 2026-05-06 01:40 | 38.84573 | -77.04575 | 21 ft | 11 kts | 53° |
| 2026-05-06 01:41 | 38.84618 | -77.04498 | 21 ft | 10 kts | 53° |
| 2026-05-06 01:41 | 38.84646 | -77.04424 | 21 ft | 8 kts | 104° |
| 2026-05-06 01:41 | 38.84608 | -77.04376 | 21 ft | 7 kts | 141° |
| 2026-05-06 01:41 | 38.84573 | -77.04334 | 23 ft | 6 kts | 123° |
| 2026-05-06 01:42 | 38.84563 | -77.04284 | 21 ft | 5 kts | 88° |
| 2026-05-06 01:42 | 38.84569 | -77.04241 | 21 ft | 4 kts | 77° |
| 2026-05-06 01:42 | 38.84574 | -77.04205 | 21 ft | 7 kts | 81° |
| 2026-05-06 01:42 | 38.84593 | -77.04102 | 22 ft | 14 kts | 71° |
| 2026-05-06 01:43 | 38.84657 | -77.04023 | 21 ft | 13 kts | 24° |
| 2026-05-06 01:43 | 38.84733 | -77.03978 | 21 ft | 12 kts | 25° |
| 2026-05-06 01:43 | 38.84807 | -77.03944 | 21 ft | 11 kts | 5° |
| 2026-05-06 01:43 | 38.84880 | -77.03949 | 20 ft | 10 kts | 355° |
| 2026-05-06 01:44 | 38.84947 | -77.03956 | 20 ft | 9 kts | 355° |
| 2026-05-06 01:44 | 38.85009 | -77.03962 | 20 ft | 8 kts | 355° |
| 2026-05-06 01:44 | 38.85065 | -77.03968 | 20 ft | 8 kts | 355° |
| 2026-05-06 01:44 | 38.85117 | -77.03973 | 20 ft | 7 kts | 355° |
| 2026-05-06 01:45 | 38.85164 | -77.03978 | 22 ft | 6 kts | 355° |
| 2026-05-06 01:45 | 38.85207 | -77.03982 | 20 ft | 6 kts | 355° |
| 2026-05-06 01:45 | 38.85254 | -77.03987 | 23 ft | 10 kts | 355° |
| 2026-05-06 01:45 | 38.85344 | -77.03996 | 21 ft | 16 kts | 356° |
| 2026-05-06 01:46 | 38.85455 | -77.04006 | 22 ft | 15 kts | 355° |
| 2026-05-06 01:46 | 38.85555 | -77.04033 | 22 ft | 13 kts | 351° |
| 2026-05-06 01:46 | 38.85644 | -77.04041 | 25 ft | 12 kts | 354° |
| 2026-05-06 01:46 | 38.85709 | -77.04085 | 22 ft | 10 kts | 322° |
| 2026-05-06 01:47 | 38.85760 | -77.04135 | 21 ft | 9 kts | 324° |
| 2026-05-06 01:47 | 38.85807 | -77.04181 | 21 ft | 8 kts | 322° |
| 2026-05-06 01:47 | 38.85849 | -77.04223 | 21 ft | 7 kts | 322° |
| 2026-05-06 01:47 | 38.85888 | -77.04262 | 21 ft | 8 kts | 323° |
| 2026-05-06 01:48 | 38.85937 | -77.04308 | 21 ft | 10 kts | 323° |
| 2026-05-06 01:48 | 38.85996 | -77.04367 | 21 ft | 12 kts | 324° |
| 2026-05-06 01:48 | 38.86048 | -77.04398 | 20 ft | 0 kts | 3° |
| 2026-05-06 01:50 | 38.86069 | -77.04388 | 20 ft | 9 kts | 30° |
| 2026-05-06 01:50 | 38.86097 | -77.04309 | 20 ft | 7 kts | 148° |
| 2026-05-06 01:51 | 38.86077 | -77.04292 | 21 ft | 4 kts | 141° |
| 2026-05-06 01:51 | 38.85813 | -77.04033 | 22 ft | 96 kts | 144° |
| 2026-05-06 01:51 | 38.85124 | -77.03368 | 165 ft | 134 kts | 147° |
| 2026-05-06 01:51 | 38.84356 | -77.02638 | 678 ft | 142 kts | 148° |
| 2026-05-06 01:52 | 38.83367 | -77.02104 | 791 ft | 170 kts | 174° |
| 2026-05-06 01:52 | 38.82097 | -77.02269 | 861 ft | 200 kts | 193° |
| 2026-05-06 01:52 | 38.80636 | -77.02686 | 938 ft | 232 kts | 193° |
| 2026-05-06 01:52 | 38.79010 | -77.03024 | 1639 ft | 233 kts | 189° |
| 2026-05-06 01:53 | 38.77975 | -77.03185 | 2336 ft | 222 kts | 194° |
| 2026-05-06 01:53 | 38.76548 | -77.03956 | 2887 ft | 228 kts | 216° |
| 2026-05-06 01:53 | 38.75505 | -77.05435 | 3779 ft | 221 kts | 235° |
| 2026-05-06 01:53 | 38.74843 | -77.07292 | 4225 ft | 238 kts | 250° |
| 2026-05-06 01:54 | 38.74647 | -77.09414 | 4948 ft | 241 kts | 261° |
| 2026-05-06 01:54 | 38.74532 | -77.11562 | 5571 ft | 243 kts | 260° |
| 2026-05-06 01:54 | 38.74399 | -77.13736 | 6084 ft | 250 kts | 260° |
| 2026-05-06 01:54 | 38.74264 | -77.15928 | 7238 ft | 245 kts | 261° |
| 2026-05-06 01:55 | 38.74124 | -77.18154 | 8188 ft | 255 kts | 262° |
| 2026-05-06 01:55 | 38.73982 | -77.20436 | 9219 ft | 260 kts | 263° |
| 2026-05-06 01:55 | 38.73839 | -77.22771 | 10084 ft | 266 kts | 263° |
| 2026-05-06 01:55 | 38.73772 | -77.25215 | 10449 ft | 291 kts | 272° |
| 2026-05-06 01:56 | 38.74309 | -77.27855 | 10714 ft | 313 kts | 284° |
| 2026-05-06 01:56 | 38.74942 | -77.30506 | 11682 ft | 311 kts | 283° |
| 2026-05-06 01:56 | 38.75521 | -77.33187 | 12481 ft | 315 kts | 282° |
| 2026-05-06 01:56 | 38.76104 | -77.35911 | 13313 ft | 319 kts | 283° |
| 2026-05-06 01:57 | 38.76717 | -77.38654 | 14084 ft | 322 kts | 283° |
| 2026-05-06 01:57 | 38.77341 | -77.41427 | 14802 ft | 325 kts | 282° |
| 2026-05-06 01:57 | 38.77959 | -77.44230 | 15519 ft | 329 kts | 282° |
| 2026-05-06 01:57 | 38.78572 | -77.47029 | 16241 ft | 332 kts | 282° |
| 2026-05-06 01:58 | 38.79212 | -77.49928 | 17009 ft | 336 kts | 281° |
| 2026-05-06 01:58 | 38.79842 | -77.52784 | 17763 ft | 339 kts | 281° |
| 2026-05-06 01:58 | 38.80486 | -77.55709 | 18503 ft | 343 kts | 281° |
| 2026-05-06 01:58 | 38.81133 | -77.58662 | 19239 ft | 345 kts | 281° |
| 2026-05-06 01:59 | 38.81786 | -77.61635 | 19998 ft | 347 kts | 282° |
| 2026-05-06 01:59 | 38.82292 | -77.64667 | 20679 ft | 348 kts | 274° |
| 2026-05-06 01:59 | 38.82551 | -77.67756 | 21454 ft | 350 kts | 274° |
| 2026-05-06 01:59 | 38.82851 | -77.70873 | 22210 ft | 353 kts | 275° |
| 2026-05-06 02:00 | 38.83167 | -77.74013 | 22960 ft | 356 kts | 276° |
| 2026-05-06 02:00 | 38.83465 | -77.77182 | 23665 ft | 360 kts | 275° |
| 2026-05-06 02:00 | 38.83756 | -77.80390 | 24275 ft | 363 kts | 275° |
| 2026-05-06 02:00 | 38.84057 | -77.83616 | 24891 ft | 366 kts | 276° |
| 2026-05-06 02:01 | 38.84365 | -77.86873 | 25497 ft | 369 kts | 276° |
| 2026-05-06 02:01 | 38.84581 | -77.90169 | 26058 ft | 372 kts | 271° |
| 2026-05-06 02:01 | 38.84656 | -77.93504 | 26666 ft | 375 kts | 271° |
| 2026-05-06 02:01 | 38.84759 | -77.96858 | 27273 ft | 378 kts | 272° |
| 2026-05-06 02:02 | 38.84872 | -78.00247 | 27865 ft | 382 kts | 272° |
| 2026-05-06 02:02 | 38.84971 | -78.03668 | 28481 ft | 385 kts | 272° |
| 2026-05-06 02:02 | 38.85062 | -78.07110 | 29097 ft | 388 kts | 272° |
| 2026-05-06 02:02 | 38.85160 | -78.10581 | 29707 ft | 391 kts | 272° |
| 2026-05-06 02:03 | 38.85262 | -78.14085 | 30236 ft | 395 kts | 272° |
| 2026-05-06 02:03 | 38.85360 | -78.17614 | 30829 ft | 395 kts | 273° |
| 2026-05-06 02:03 | 38.85442 | -78.21112 | 31653 ft | 389 kts | 273° |
| 2026-05-06 02:03 | 38.85423 | -78.24552 | 32536 ft | 382 kts | 273° |
| 2026-05-06 02:04 | 38.85403 | -78.27926 | 33444 ft | 375 kts | 274° |
| 2026-05-06 02:04 | 38.85391 | -78.31236 | 34289 ft | 368 kts | 275° |
| 2026-05-06 02:04 | 38.85380 | -78.34500 | 34943 ft | 364 kts | 275° |
| 2026-05-06 02:04 | 38.85236 | -78.37741 | 35589 ft | 365 kts | 269° |
| 2026-05-06 02:05 | 38.84790 | -78.40959 | 36224 ft | 367 kts | 265° |
| 2026-05-06 02:05 | 38.84300 | -78.43864 | 36808 ft | 364 kts | 265° |
| 2026-05-06 02:05 | 38.83789 | -78.47030 | 37563 ft | 361 kts | 265° |
| 2026-05-06 02:05 | 38.83283 | -78.50164 | 38288 ft | 358 kts | 265° |
| 2026-05-06 02:06 | 38.82771 | -78.53271 | 38897 ft | 355 kts | 265° |
| 2026-05-06 02:06 | 38.82258 | -78.56370 | 39369 ft | 355 kts | 265° |
| 2026-05-06 02:06 | 38.81747 | -78.59469 | 39807 ft | 355 kts | 265° |
| 2026-05-06 02:06 | 38.81237 | -78.62567 | 40253 ft | 355 kts | 265° |
| 2026-05-06 02:07 | 38.80724 | -78.65664 | 40708 ft | 355 kts | 264° |
| 2026-05-06 02:07 | 38.80210 | -78.68757 | 41150 ft | 355 kts | 264° |
| 2026-05-06 02:07 | 38.79695 | -78.71852 | 41612 ft | 355 kts | 264° |
| 2026-05-06 02:07 | 38.79182 | -78.74944 | 41990 ft | 356 kts | 264° |
| 2026-05-06 02:08 | 38.78664 | -78.78050 | 42409 ft | 356 kts | 264° |
| 2026-05-06 02:08 | 38.78153 | -78.81106 | 42830 ft | 355 kts | 264° |
| 2026-05-06 02:08 | 38.77634 | -78.84215 | 42994 ft | 361 kts | 264° |
| 2026-05-06 02:08 | 38.77097 | -78.87438 | 43017 ft | 369 kts | 264° |
| 2026-05-06 02:09 | 38.75996 | -78.93976 | 43008 ft | 386 kts | 263° |
| 2026-05-06 02:09 | 38.74841 | -79.00831 | 43009 ft | 400 kts | 263° |
| 2026-05-06 02:10 | 38.73912 | -79.06315 | 43010 ft | 408 kts | 263° |
| 2026-05-06 02:10 | 38.72688 | -79.13532 | 43012 ft | 421 kts | 263° |
| 2026-05-06 02:11 | 38.71419 | -79.20954 | 43018 ft | 431 kts | 263° |
| 2026-05-06 02:11 | 38.70138 | -79.28526 | 43016 ft | 438 kts | 263° |
| 2026-05-06 02:12 | 38.68897 | -79.36209 | 43010 ft | 442 kts | 263° |
| 2026-05-06 02:12 | 38.67612 | -79.43896 | 43012 ft | 441 kts | 263° |
| 2026-05-06 02:13 | 38.66341 | -79.51615 | 43017 ft | 445 kts | 263° |
| 2026-05-06 02:13 | 38.65041 | -79.59372 | 43023 ft | 446 kts | 263° |
| 2026-05-06 02:14 | 38.63746 | -79.67119 | 43022 ft | 445 kts | 263° |
| 2026-05-06 02:14 | 38.62404 | -79.74864 | 43027 ft | 447 kts | 261° |
| 2026-05-06 02:15 | 38.60980 | -79.82631 | 43027 ft | 449 kts | 262° |
| 2026-05-06 02:15 | 38.59597 | -79.90416 | 43027 ft | 449 kts | 261° |
| 2026-05-06 02:16 | 38.58181 | -79.98185 | 43020 ft | 449 kts | 262° |
| 2026-05-06 02:16 | 38.56773 | -80.05970 | 43010 ft | 450 kts | 261° |
| 2026-05-06 02:17 | 38.55360 | -80.13703 | 43001 ft | 450 kts | 261° |
| 2026-05-06 02:17 | 38.53925 | -80.21479 | 43006 ft | 450 kts | 261° |
| 2026-05-06 02:18 | 38.52481 | -80.29249 | 42993 ft | 448 kts | 261° |
| 2026-05-06 02:18 | 38.51039 | -80.37009 | 43002 ft | 450 kts | 261° |
| 2026-05-06 02:19 | 38.49585 | -80.44771 | 42988 ft | 450 kts | 261° |
| 2026-05-06 02:19 | 38.48126 | -80.52554 | 42986 ft | 450 kts | 261° |
| 2026-05-06 02:20 | 38.45932 | -80.64185 | 42976 ft | 451 kts | 261° |
| 2026-05-06 02:21 | 38.44456 | -80.71973 | 42974 ft | 452 kts | 261° |
| 2026-05-06 02:21 | 38.42971 | -80.79774 | 42974 ft | 452 kts | 261° |
| 2026-05-06 02:22 | 38.41485 | -80.87553 | 42969 ft | 452 kts | 261° |
| 2026-05-06 02:22 | 38.39992 | -80.95339 | 42964 ft | 452 kts | 261° |
| 2026-05-06 02:23 | 38.38493 | -81.03130 | 42965 ft | 452 kts | 261° |
| 2026-05-06 02:23 | 38.36948 | -81.10895 | 42952 ft | 454 kts | 258° |
| 2026-05-06 02:24 | 38.35199 | -81.18061 | 42963 ft | 454 kts | 258° |
| 2026-05-06 02:24 | 38.33354 | -81.25753 | 42967 ft | 454 kts | 258° |
| 2026-05-06 02:25 | 38.31482 | -81.33422 | 42967 ft | 452 kts | 257° |
| 2026-05-06 02:25 | 38.29628 | -81.41053 | 42966 ft | 451 kts | 258° |
| 2026-05-06 02:26 | 38.27761 | -81.48687 | 42960 ft | 452 kts | 257° |
| 2026-05-06 02:26 | 38.25891 | -81.56314 | 42965 ft | 451 kts | 257° |
| 2026-05-06 02:27 | 38.24019 | -81.63926 | 42961 ft | 451 kts | 257° |
| 2026-05-06 02:27 | 38.22133 | -81.71538 | 42962 ft | 452 kts | 257° |
| 2026-05-06 02:28 | 38.20023 | -81.79065 | 42964 ft | 453 kts | 256° |
| 2026-05-06 02:28 | 38.17919 | -81.86596 | 42962 ft | 452 kts | 256° |
| 2026-05-06 02:29 | 38.15802 | -81.94118 | 42959 ft | 452 kts | 256° |
| 2026-05-06 02:29 | 38.13698 | -82.01586 | 42952 ft | 452 kts | 256° |
| 2026-05-06 02:30 | 38.11577 | -82.09090 | 42968 ft | 451 kts | 256° |
| 2026-05-06 02:30 | 38.09451 | -82.16589 | 42957 ft | 451 kts | 256° |
| 2026-05-06 02:31 | 38.07325 | -82.24069 | 42952 ft | 450 kts | 256° |
| 2026-05-06 02:31 | 38.05195 | -82.31541 | 42948 ft | 450 kts | 256° |
| 2026-05-06 02:32 | 38.03063 | -82.39001 | 42945 ft | 449 kts | 256° |
| 2026-05-06 02:32 | 38.00929 | -82.46445 | 42955 ft | 449 kts | 256° |
| 2026-05-06 02:33 | 37.98792 | -82.53879 | 42964 ft | 448 kts | 256° |
| 2026-05-06 02:33 | 37.98084 | -82.56338 | 42960 ft | 448 kts | 256° |
| 2026-05-06 02:34 | 37.94510 | -82.68714 | 42962 ft | 448 kts | 256° |
| 2026-05-06 02:34 | 37.92364 | -82.76116 | 42964 ft | 447 kts | 256° |
| 2026-05-06 02:35 | 37.90219 | -82.83497 | 42968 ft | 446 kts | 256° |
| 2026-05-06 02:35 | 37.88041 | -82.90809 | 42963 ft | 446 kts | 255° |
| 2026-05-06 02:36 | 37.85824 | -82.98134 | 42956 ft | 445 kts | 255° |
| 2026-05-06 02:36 | 37.83628 | -83.05457 | 42950 ft | 445 kts | 255° |
| 2026-05-06 02:37 | 37.81415 | -83.12754 | 42962 ft | 444 kts | 255° |
| 2026-05-06 02:37 | 37.79209 | -83.20049 | 42962 ft | 443 kts | 255° |
| 2026-05-06 02:38 | 37.77034 | -83.27325 | 42972 ft | 442 kts | 256° |
| 2026-05-06 02:38 | 37.74934 | -83.34625 | 42975 ft | 442 kts | 256° |
| 2026-05-06 02:39 | 37.72825 | -83.41912 | 42967 ft | 441 kts | 256° |
| 2026-05-06 02:39 | 37.70736 | -83.49132 | 42963 ft | 441 kts | 256° |
| 2026-05-06 02:40 | 37.68624 | -83.56397 | 42959 ft | 441 kts | 256° |
| 2026-05-06 02:40 | 37.66510 | -83.63657 | 42962 ft | 440 kts | 256° |
| 2026-05-06 02:41 | 37.64397 | -83.70890 | 42952 ft | 439 kts | 256° |
| 2026-05-06 02:41 | 37.62281 | -83.78116 | 42943 ft | 439 kts | 256° |
| 2026-05-06 02:42 | 37.60161 | -83.85335 | 42946 ft | 438 kts | 256° |
| 2026-05-06 02:42 | 37.58040 | -83.92542 | 42952 ft | 438 kts | 256° |
| 2026-05-06 02:43 | 37.55918 | -83.99730 | 42959 ft | 437 kts | 256° |
| 2026-05-06 02:43 | 37.53794 | -84.06908 | 42960 ft | 437 kts | 256° |
| 2026-05-06 02:44 | 37.51668 | -84.14070 | 42970 ft | 436 kts | 256° |
| 2026-05-06 02:44 | 37.49545 | -84.21208 | 42980 ft | 435 kts | 256° |
| 2026-05-06 02:45 | 37.47401 | -84.28338 | 42979 ft | 436 kts | 255° |
| 2026-05-06 02:45 | 37.45239 | -84.35092 | 42976 ft | 435 kts | 255° |
| 2026-05-06 02:46 | 37.43037 | -84.42168 | 42968 ft | 434 kts | 255° |
| 2026-05-06 02:46 | 37.40805 | -84.49221 | 42964 ft | 433 kts | 255° |
| 2026-05-06 02:47 | 37.38584 | -84.56264 | 42957 ft | 433 kts | 255° |
| 2026-05-06 02:47 | 37.36359 | -84.63291 | 42957 ft | 433 kts | 255° |
| 2026-05-06 02:48 | 37.34129 | -84.70314 | 42953 ft | 432 kts | 255° |
| 2026-05-06 02:48 | 37.31899 | -84.77326 | 42958 ft | 432 kts | 255° |
| 2026-05-06 02:49 | 37.29688 | -84.84324 | 42944 ft | 430 kts | 255° |
| 2026-05-06 02:49 | 37.27472 | -84.91301 | 42947 ft | 430 kts | 255° |
| 2026-05-06 02:50 | 37.25255 | -84.98271 | 42957 ft | 430 kts | 255° |
| 2026-05-06 02:50 | 37.23034 | -85.05229 | 42967 ft | 430 kts | 255° |
| 2026-05-06 02:51 | 37.20865 | -85.12197 | 42966 ft | 426 kts | 258° |
| 2026-05-06 02:51 | 37.19348 | -85.19335 | 42991 ft | 423 kts | 261° |
| 2026-05-06 02:52 | 37.17870 | -85.26423 | 43001 ft | 423 kts | 261° |
| 2026-05-06 02:52 | 37.16404 | -85.33565 | 42988 ft | 423 kts | 261° |
| 2026-05-06 02:53 | 37.14923 | -85.40688 | 42983 ft | 422 kts | 261° |
| 2026-05-06 02:53 | 37.13444 | -85.47806 | 42968 ft | 421 kts | 261° |
| 2026-05-06 02:54 | 37.11962 | -85.54909 | 42952 ft | 421 kts | 261° |
| 2026-05-06 02:54 | 37.10479 | -85.61993 | 42935 ft | 420 kts | 261° |
| 2026-05-06 02:55 | 37.08995 | -85.69062 | 42941 ft | 419 kts | 261° |
| 2026-05-06 02:55 | 37.07508 | -85.76123 | 42947 ft | 419 kts | 261° |
| 2026-05-06 02:56 | 37.06019 | -85.83168 | 42948 ft | 419 kts | 261° |
| 2026-05-06 02:56 | 37.04526 | -85.90208 | 42946 ft | 418 kts | 261° |
| 2026-05-06 02:57 | 37.03031 | -85.97238 | 42952 ft | 418 kts | 261° |
| 2026-05-06 02:57 | 37.01787 | -86.03072 | 42947 ft | 418 kts | 261° |
| 2026-05-06 02:58 | 37.00285 | -86.10090 | 42946 ft | 417 kts | 261° |
| 2026-05-06 02:58 | 36.98781 | -86.17099 | 42941 ft | 417 kts | 260° |
| 2026-05-06 02:59 | 36.97276 | -86.24093 | 42933 ft | 416 kts | 260° |
| 2026-05-06 02:59 | 36.95767 | -86.31083 | 42924 ft | 416 kts | 260° |
| 2026-05-06 03:00 | 36.94256 | -86.38060 | 42922 ft | 415 kts | 260° |
| 2026-05-06 03:00 | 36.92473 | -86.44902 | 42926 ft | 417 kts | 254° |
| 2026-05-06 03:01 | 36.89837 | -86.51280 | 42928 ft | 414 kts | 249° |
| 2026-05-06 03:01 | 36.87065 | -86.57625 | 42944 ft | 418 kts | 249° |
| 2026-05-06 03:02 | 36.84239 | -86.64021 | 42950 ft | 422 kts | 249° |
| 2026-05-06 03:02 | 36.81399 | -86.70457 | 42941 ft | 424 kts | 249° |
| 2026-05-06 03:03 | 36.78548 | -86.76898 | 42936 ft | 424 kts | 249° |
| 2026-05-06 03:03 | 36.75699 | -86.83329 | 42935 ft | 423 kts | 249° |
| 2026-05-06 03:04 | 36.72848 | -86.89750 | 42927 ft | 423 kts | 249° |
| 2026-05-06 03:04 | 36.69992 | -86.96168 | 42929 ft | 423 kts | 249° |
| 2026-05-06 03:05 | 36.67139 | -87.02569 | 42919 ft | 422 kts | 249° |
| 2026-05-06 03:05 | 36.64282 | -87.08965 | 42914 ft | 422 kts | 249° |
| 2026-05-06 03:06 | 36.61444 | -87.15296 | 42920 ft | 414 kts | 249° |
| 2026-05-06 03:06 | 36.58659 | -87.21526 | 42916 ft | 416 kts | 249° |
| 2026-05-06 03:06 | 36.57259 | -87.24630 | 42913 ft | 399 kts | 249° |
| 2026-05-06 03:07 | 36.55924 | -87.27568 | 42664 ft | 391 kts | 249° |
| 2026-05-06 03:07 | 36.54590 | -87.30580 | 42134 ft | 401 kts | 249° |
| 2026-05-06 03:07 | 36.53237 | -87.33603 | 41601 ft | 399 kts | 249° |
| 2026-05-06 03:07 | 36.51873 | -87.36596 | 41105 ft | 396 kts | 249° |
| 2026-05-06 03:08 | 36.50528 | -87.39563 | 40587 ft | 392 kts | 249° |
| 2026-05-06 03:08 | 36.49200 | -87.42525 | 40070 ft | 398 kts | 249° |
| 2026-05-06 03:08 | 36.47846 | -87.45546 | 39542 ft | 399 kts | 249° |
| 2026-05-06 03:08 | 36.46481 | -87.48541 | 39019 ft | 397 kts | 249° |
| 2026-05-06 03:09 | 36.45130 | -87.51509 | 38488 ft | 393 kts | 249° |
| 2026-05-06 03:09 | 36.43801 | -87.54451 | 37946 ft | 389 kts | 249° |
| 2026-05-06 03:09 | 36.42484 | -87.57370 | 37428 ft | 386 kts | 249° |
| 2026-05-06 03:09 | 36.41169 | -87.60267 | 36926 ft | 384 kts | 249° |
| 2026-05-06 03:10 | 36.39858 | -87.63141 | 36420 ft | 381 kts | 248° |
| 2026-05-06 03:10 | 36.38560 | -87.65995 | 35924 ft | 379 kts | 248° |
| 2026-05-06 03:10 | 36.37269 | -87.68836 | 35425 ft | 376 kts | 248° |
| 2026-05-06 03:10 | 36.35985 | -87.71660 | 34928 ft | 374 kts | 248° |
| 2026-05-06 03:11 | 36.34708 | -87.74458 | 34437 ft | 372 kts | 247° |
| 2026-05-06 03:11 | 36.33439 | -87.77240 | 33946 ft | 369 kts | 247° |
| 2026-05-06 03:11 | 36.32176 | -87.80007 | 33425 ft | 368 kts | 247° |
| 2026-05-06 03:11 | 36.30913 | -87.82773 | 32943 ft | 372 kts | 246° |
| 2026-05-06 03:12 | 36.29608 | -87.85648 | 32445 ft | 387 kts | 246° |
| 2026-05-06 03:12 | 36.28274 | -87.88554 | 31934 ft | 394 kts | 245° |
| 2026-05-06 03:12 | 36.26918 | -87.91499 | 31412 ft | 391 kts | 245° |
| 2026-05-06 03:12 | 36.25592 | -87.94380 | 30899 ft | 379 kts | 245° |
| 2026-05-06 03:13 | 36.24308 | -87.97184 | 30389 ft | 369 kts | 245° |
| 2026-05-06 03:13 | 36.23043 | -87.99953 | 29555 ft | 370 kts | 244° |
| 2026-05-06 03:13 | 36.21784 | -88.02693 | 29418 ft | 370 kts | 244° |
| 2026-05-06 03:13 | 36.20481 | -88.05535 | 29018 ft | 386 kts | 244° |
| 2026-05-06 03:14 | 36.19160 | -88.08403 | 28397 ft | 390 kts | 244° |
| 2026-05-06 03:14 | 36.17814 | -88.11312 | 27873 ft | 390 kts | 244° |
| 2026-05-06 03:14 | 36.16470 | -88.14222 | 27355 ft | 389 kts | 244° |
| 2026-05-06 03:14 | 36.15133 | -88.17126 | 26847 ft | 388 kts | 245° |
| 2026-05-06 03:15 | 36.13794 | -88.20027 | 26332 ft | 387 kts | 244° |
| 2026-05-06 03:15 | 36.12459 | -88.22911 | 25819 ft | 385 kts | 245° |
| 2026-05-06 03:15 | 36.11145 | -88.25747 | 25314 ft | 373 kts | 245° |
| 2026-05-06 03:15 | 36.09877 | -88.28472 | 24799 ft | 360 kts | 245° |
| 2026-05-06 03:16 | 36.08638 | -88.31154 | 24672 ft | 359 kts | 245° |
| 2026-05-06 03:16 | 36.07388 | -88.33857 | 24800 ft | 362 kts | 245° |
| 2026-05-06 03:16 | 36.06132 | -88.36555 | 24888 ft | 360 kts | 245° |
| 2026-05-06 03:16 | 36.04911 | -88.39169 | 24052 ft | 347 kts | 245° |
| 2026-05-06 03:17 | 36.03698 | -88.41796 | 22638 ft | 353 kts | 245° |
| 2026-05-06 03:17 | 36.02486 | -88.44409 | 21912 ft | 347 kts | 245° |
| 2026-05-06 03:17 | 36.01283 | -88.46978 | 21763 ft | 346 kts | 245° |
| 2026-05-06 03:17 | 36.00087 | -88.49542 | 21470 ft | 344 kts | 245° |
| 2026-05-06 03:18 | 35.98898 | -88.52097 | 21161 ft | 342 kts | 245° |
| 2026-05-06 03:18 | 35.97729 | -88.54603 | 20857 ft | 340 kts | 245° |
| 2026-05-06 03:18 | 35.96551 | -88.57122 | 20547 ft | 338 kts | 245° |
| 2026-05-06 03:18 | 35.95378 | -88.59629 | 20239 ft | 336 kts | 245° |
| 2026-05-06 03:19 | 35.94215 | -88.62117 | 19938 ft | 334 kts | 245° |
| 2026-05-06 03:19 | 35.93055 | -88.64596 | 19635 ft | 333 kts | 245° |
| 2026-05-06 03:19 | 35.91900 | -88.67060 | 19337 ft | 331 kts | 245° |
| 2026-05-06 03:19 | 35.90750 | -88.69513 | 19040 ft | 329 kts | 245° |
| 2026-05-06 03:20 | 35.88472 | -88.74367 | 18443 ft | 326 kts | 245° |
| 2026-05-06 03:20 | 35.87338 | -88.76781 | 18161 ft | 324 kts | 245° |
| 2026-05-06 03:20 | 35.86211 | -88.79176 | 17879 ft | 323 kts | 245° |
| 2026-05-06 03:21 | 35.85088 | -88.81562 | 17600 ft | 322 kts | 245° |
| 2026-05-06 03:21 | 35.83979 | -88.83916 | 16983 ft | 320 kts | 245° |
| 2026-05-06 03:21 | 35.82879 | -88.86252 | 16745 ft | 305 kts | 245° |
| 2026-05-06 03:21 | 35.81814 | -88.88509 | 15395 ft | 309 kts | 245° |
| 2026-05-06 03:22 | 35.80731 | -88.90821 | 14454 ft | 313 kts | 244° |
| 2026-05-06 03:22 | 35.79650 | -88.93099 | 13992 ft | 301 kts | 244° |
| 2026-05-06 03:22 | 35.78622 | -88.95258 | 13996 ft | 291 kts | 244° |
| 2026-05-06 03:22 | 35.77605 | -88.97422 | 14001 ft | 293 kts | 244° |
| 2026-05-06 03:23 | 35.76584 | -88.99586 | 13999 ft | 294 kts | 244° |
| 2026-05-06 03:23 | 35.75554 | -89.01758 | 13999 ft | 294 kts | 244° |
| 2026-05-06 03:23 | 35.74528 | -89.03919 | 14002 ft | 293 kts | 244° |
| 2026-05-06 03:23 | 35.73502 | -89.06081 | 14002 ft | 292 kts | 244° |
| 2026-05-06 03:24 | 35.72254 | -89.08085 | 13976 ft | 298 kts | 233° |
| 2026-05-06 03:24 | 35.70796 | -89.09920 | 13974 ft | 300 kts | 232° |
| 2026-05-06 03:24 | 35.69366 | -89.11784 | 13792 ft | 298 kts | 233° |
| 2026-05-06 03:24 | 35.67965 | -89.13623 | 13529 ft | 298 kts | 233° |
| 2026-05-06 03:25 | 35.66526 | -89.15483 | 13233 ft | 296 kts | 232° |
| 2026-05-06 03:25 | 35.65120 | -89.17290 | 12978 ft | 295 kts | 232° |
| 2026-05-06 03:25 | 35.63709 | -89.19112 | 12710 ft | 294 kts | 232° |
| 2026-05-06 03:25 | 35.62301 | -89.20933 | 12442 ft | 293 kts | 232° |
| 2026-05-06 03:26 | 35.60894 | -89.22749 | 12176 ft | 293 kts | 232° |
| 2026-05-06 03:26 | 35.59544 | -89.24605 | 11908 ft | 290 kts | 236° |
| 2026-05-06 03:26 | 35.58279 | -89.26522 | 11651 ft | 289 kts | 236° |
| 2026-05-06 03:26 | 35.57010 | -89.28428 | 11381 ft | 287 kts | 235° |
| 2026-05-06 03:27 | 35.55736 | -89.30323 | 11116 ft | 286 kts | 235° |
| 2026-05-06 03:27 | 35.54473 | -89.32213 | 10855 ft | 285 kts | 236° |
| 2026-05-06 03:27 | 35.53473 | -89.34297 | 10545 ft | 281 kts | 246° |
| 2026-05-06 03:27 | 35.52676 | -89.36485 | 10283 ft | 280 kts | 249° |
| 2026-05-06 03:28 | 35.51853 | -89.38657 | 10029 ft | 281 kts | 245° |
| 2026-05-06 03:28 | 35.50924 | -89.40760 | 9972 ft | 276 kts | 243° |
| 2026-05-06 03:28 | 35.50056 | -89.42699 | 9963 ft | 245 kts | 245° |
| 2026-05-06 03:28 | 35.49305 | -89.44465 | 9961 ft | 225 kts | 245° |
| 2026-05-06 03:29 | 35.48589 | -89.46160 | 9964 ft | 224 kts | 245° |
| 2026-05-06 03:29 | 35.47867 | -89.47847 | 9966 ft | 222 kts | 245° |
| 2026-05-06 03:29 | 35.47159 | -89.49494 | 9486 ft | 220 kts | 245° |
| 2026-05-06 03:29 | 35.46439 | -89.51174 | 8900 ft | 222 kts | 245° |
| 2026-05-06 03:30 | 35.45725 | -89.52835 | 8433 ft | 219 kts | 244° |
| 2026-05-06 03:30 | 35.45017 | -89.54482 | 7936 ft | 217 kts | 244° |
| 2026-05-06 03:30 | 35.44312 | -89.56122 | 7436 ft | 217 kts | 244° |
| 2026-05-06 03:30 | 35.43612 | -89.57749 | 6984 ft | 215 kts | 244° |
| 2026-05-06 03:31 | 35.42925 | -89.59343 | 6536 ft | 213 kts | 244° |
| 2026-05-06 03:31 | 35.42237 | -89.60941 | 6079 ft | 211 kts | 243° |
| 2026-05-06 03:31 | 35.41554 | -89.62531 | 5587 ft | 210 kts | 243° |
| 2026-05-06 03:31 | 35.40876 | -89.64103 | 5083 ft | 209 kts | 242° |
| 2026-05-06 03:32 | 35.40196 | -89.65679 | 4543 ft | 207 kts | 242° |
| 2026-05-06 03:32 | 35.39538 | -89.67204 | 4106 ft | 200 kts | 242° |
| 2026-05-06 03:32 | 35.38910 | -89.68662 | 3527 ft | 203 kts | 240° |
| 2026-05-06 03:32 | 35.38234 | -89.70223 | 3038 ft | 212 kts | 239° |
| 2026-05-06 03:33 | 35.37570 | -89.71765 | 2978 ft | 199 kts | 238° |
| 2026-05-06 03:33 | 35.36920 | -89.73268 | 2990 ft | 201 kts | 238° |
| 2026-05-06 03:33 | 35.36273 | -89.74760 | 2994 ft | 198 kts | 239° |
| 2026-05-06 03:33 | 35.35625 | -89.76260 | 2994 ft | 199 kts | 239° |
| 2026-05-06 03:34 | 35.34974 | -89.77764 | 2992 ft | 201 kts | 239° |
| 2026-05-06 03:34 | 35.34314 | -89.79288 | 2992 ft | 203 kts | 239° |
| 2026-05-06 03:34 | 35.33654 | -89.80814 | 2992 ft | 201 kts | 239° |
| 2026-05-06 03:34 | 35.33000 | -89.82323 | 2993 ft | 201 kts | 239° |
| 2026-05-06 03:35 | 35.32343 | -89.83838 | 2992 ft | 201 kts | 239° |
| 2026-05-06 03:35 | 35.31688 | -89.85348 | 2993 ft | 201 kts | 239° |
| 2026-05-06 03:35 | 35.31033 | -89.86858 | 2988 ft | 200 kts | 239° |
| 2026-05-06 03:35 | 35.30385 | -89.88351 | 2992 ft | 199 kts | 239° |
| 2026-05-06 03:36 | 35.29729 | -89.89859 | 2993 ft | 201 kts | 238° |
| 2026-05-06 03:36 | 35.29068 | -89.91373 | 2994 ft | 202 kts | 239° |
| 2026-05-06 03:36 | 35.28406 | -89.92865 | 2965 ft | 200 kts | 237° |
| 2026-05-06 03:36 | 35.27500 | -89.94142 | 2981 ft | 198 kts | 224° |
| 2026-05-06 03:37 | 35.26487 | -89.95279 | 2982 ft | 196 kts | 222° |
| 2026-05-06 03:37 | 35.25443 | -89.96338 | 2962 ft | 196 kts | 213° |
| 2026-05-06 03:37 | 35.24212 | -89.97041 | 2927 ft | 191 kts | 204° |
| 2026-05-06 03:37 | 35.22868 | -89.97480 | 2673 ft | 205 kts | 195° |
| 2026-05-06 03:38 | 35.21471 | -89.97624 | 2676 ft | 202 kts | 188° |
| 2026-05-06 03:38 | 35.20051 | -89.97611 | 2692 ft | 205 kts | 186° |
| 2026-05-06 03:38 | 35.18646 | -89.97579 | 2688 ft | 199 kts | 185° |
| 2026-05-06 03:38 | 35.17270 | -89.97550 | 2690 ft | 202 kts | 185° |
| 2026-05-06 03:39 | 35.15841 | -89.97523 | 2456 ft | 207 kts | 185° |
| 2026-05-06 03:39 | 35.14401 | -89.97492 | 2181 ft | 205 kts | 185° |
| 2026-05-06 03:39 | 35.13000 | -89.97459 | 1913 ft | 198 kts | 184° |
| 2026-05-06 03:39 | 35.11640 | -89.97430 | 1662 ft | 195 kts | 183° |
| 2026-05-06 03:40 | 35.10286 | -89.97404 | 1394 ft | 196 kts | 182° |
| 2026-05-06 03:40 | 35.08987 | -89.97376 | 1119 ft | 171 kts | 181° |
| 2026-05-06 03:40 | 35.07919 | -89.97359 | 915 ft | 139 kts | 182° |
| 2026-05-06 03:40 | 35.07031 | -89.97335 | 698 ft | 118 kts | 180° |
| 2026-05-06 03:41 | 35.06188 | -89.97317 | 563 ft | 123 kts | 180° |
| 2026-05-06 03:41 | 35.05344 | -89.97300 | 397 ft | 118 kts | 180° |
| 2026-05-06 03:41 | 35.04560 | -89.97290 | 328 ft | 108 kts | 181° |
| 2026-05-06 03:41 | 35.03983 | -89.97274 | 326 ft | 34 kts | 182° |
| 2026-05-06 03:42 | 35.03830 | -89.97283 | 327 ft | 15 kts | 205° |
| 2026-05-06 03:42 | 35.03804 | -89.97341 | 326 ft | 0 kts | 265° |
| 2026-05-06 03:43 | 35.03800 | -89.97409 | 325 ft | 19 kts | 274° |
| 2026-05-06 03:43 | 35.03988 | -89.97454 | 325 ft | 16 kts | 357° |
| 2026-05-06 03:44 | 35.04097 | -89.97457 | 325 ft | 16 kts | 2° |
| 2026-05-06 03:44 | 35.04198 | -89.97457 | 323 ft | 15 kts | 359° |
| 2026-05-06 03:44 | 35.04299 | -89.97462 | 324 ft | 14 kts | 354° |
| 2026-05-06 03:44 | 35.04393 | -89.97461 | 325 ft | 14 kts | 358° |
| 2026-05-06 03:45 | 35.04489 | -89.97465 | 324 ft | 14 kts | 359° |
| 2026-05-06 03:45 | 35.04586 | -89.97465 | 324 ft | 14 kts | 1° |
| 2026-05-06 03:45 | 35.04677 | -89.97468 | 325 ft | 13 kts | 358° |
| 2026-05-06 03:45 | 35.04765 | -89.97469 | 324 ft | 13 kts | 359° |
| 2026-05-06 03:46 | 35.04848 | -89.97473 | 324 ft | 9 kts | 354° |
| 2026-05-06 03:46 | 35.04869 | -89.97531 | 321 ft | 10 kts | 270° |
| 2026-05-06 03:46 | 35.04866 | -89.97628 | 319 ft | 12 kts | 269° |
| 2026-05-06 03:46 | 35.04866 | -89.97714 | 322 ft | 8 kts | 270° |
| 2026-05-06 03:47 | 35.04884 | -89.97751 | 323 ft | 4 kts | 329° |
| 2026-05-06 03:47 | 35.04934 | -89.97759 | 324 ft | 13 kts | 1° |
| 2026-05-06 03:47 | 35.05070 | -89.97761 | 324 ft | 26 kts | 1° |
| 2026-05-06 03:47 | 35.05262 | -89.97766 | 325 ft | 24 kts | 360° |
| 2026-05-06 03:48 | 35.05312 | -89.97800 | 326 ft | 10 kts | 269° |
| 2026-05-06 03:48 | 35.05329 | -89.97875 | 325 ft | 9 kts | 335° |
| 2026-05-06 03:48 | 35.05348 | -89.97921 | 325 ft | 7 kts | 271° |
| 2026-05-06 03:48 | 35.05347 | -89.97943 | 327 ft | 1 kts | 267° |
| 2026-05-06 03:49 | 35.05347 | -89.97959 | 326 ft | 1 kts | 268° |
| 2026-05-06 03:49 | 35.05347 | -89.97962 | 326 ft | 0 kts | 274° |